sensor_id;sensor_type;location;lat;lon;timestamp;P1;durP1;ratioP1;P2;durP2;ratioP2
5684;SDS011;2865;53.114;9.130;2023-06-26T00:02:13;8.43;;;7.63;;
5684;SDS011;2865;53.114;9.130;2023-06-26T00:04:38;8.40;;;7.70;;
5684;SDS011;2865;53.114;9.130;2023-06-26T00:07:04;9.37;;;8.47;;
5684;SDS011;2865;53.114;9.130;2023-06-26T00:09:29;9.30;;;8.30;;
5684;SDS011;2865;53.114;9.130;2023-06-26T00:11:54;10.50;;;7.90;;
5684;SDS011;2865;53.114;9.130;2023-06-26T00:14:19;9.43;;;8.33;;
5684;SDS011;2865;53.114;9.130;2023-06-26T00:16:45;8.20;;;7.40;;
5684;SDS011;2865;53.114;9.130;2023-06-26T00:19:10;8.93;;;8.03;;
5684;SDS011;2865;53.114;9.130;2023-06-26T00:21:36;9.27;;;8.33;;
5684;SDS011;2865;53.114;9.130;2023-06-26T00:24:01;9.17;;;8.37;;
5684;SDS011;2865;53.114;9.130;2023-06-26T00:26:27;8.90;;;8.00;;
5684;SDS011;2865;53.114;9.130;2023-06-26T00:28:52;9.43;;;8.03;;
5684;SDS011;2865;53.114;9.130;2023-06-26T00:31:17;8.60;;;7.80;;
5684;SDS011;2865;53.114;9.130;2023-06-26T00:33:43;8.70;;;7.80;;
5684;SDS011;2865;53.114;9.130;2023-06-26T00:36:08;9.33;;;8.33;;
5684;SDS011;2865;53.114;9.130;2023-06-26T00:38:34;8.90;;;8.00;;
5684;SDS011;2865;53.114;9.130;2023-06-26T00:40:59;9.20;;;8.27;;
5684;SDS011;2865;53.114;9.130;2023-06-26T00:43:25;11.70;;;8.00;;
5684;SDS011;2865;53.114;9.130;2023-06-26T00:45:50;8.97;;;8.10;;
5684;SDS011;2865;53.114;9.130;2023-06-26T00:48:15;10.07;;;9.07;;
5684;SDS011;2865;53.114;9.130;2023-06-26T00:50:41;8.33;;;7.53;;
5684;SDS011;2865;53.114;9.130;2023-06-26T00:53:06;14.47;;;8.30;;
5684;SDS011;2865;53.114;9.130;2023-06-26T00:55:32;8.30;;;7.50;;
5684;SDS011;2865;53.114;9.130;2023-06-26T00:57:57;9.37;;;8.37;;
5684;SDS011;2865;53.114;9.130;2023-06-26T01:00:23;9.43;;;8.40;;
5684;SDS011;2865;53.114;9.130;2023-06-26T01:02:48;9.37;;;8.57;;
5684;SDS011;2865;53.114;9.130;2023-06-26T01:05:14;8.93;;;8.03;;
5684;SDS011;2865;53.114;9.130;2023-06-26T01:07:39;9.00;;;7.90;;
5684;SDS011;2865;53.114;9.130;2023-06-26T01:10:05;8.40;;;7.60;;
5684;SDS011;2865;53.114;9.130;2023-06-26T01:12:31;10.20;;;9.20;;
5684;SDS011;2865;53.114;9.130;2023-06-26T01:14:57;11.33;;;8.43;;
5684;SDS011;2865;53.114;9.130;2023-06-26T01:17:22;8.50;;;7.70;;
5684;SDS011;2865;53.114;9.130;2023-06-26T01:19:48;10.37;;;9.37;;
5684;SDS011;2865;53.114;9.130;2023-06-26T01:22:16;11.93;;;8.80;;
5684;SDS011;2865;53.114;9.130;2023-06-26T01:25:29;9.13;;;7.90;;
5684;SDS011;2865;53.114;9.130;2023-06-26T01:27:37;9.00;;;8.17;;
5684;SDS011;2865;53.114;9.130;2023-06-26T01:30:03;9.03;;;8.23;;
5684;SDS011;2865;53.114;9.130;2023-06-26T01:32:30;8.60;;;7.60;;
5684;SDS011;2865;53.114;9.130;2023-06-26T01:34:55;9.70;;;8.83;;
5684;SDS011;2865;53.114;9.130;2023-06-26T01:37:20;9.40;;;8.10;;
5684;SDS011;2865;53.114;9.130;2023-06-26T01:39:46;9.37;;;8.40;;
5684;SDS011;2865;53.114;9.130;2023-06-26T01:42:11;8.77;;;7.97;;
5684;SDS011;2865;53.114;9.130;2023-06-26T01:44:37;8.43;;;7.73;;
5684;SDS011;2865;53.114;9.130;2023-06-26T01:47:02;10.17;;;8.50;;
5684;SDS011;2865;53.114;9.130;2023-06-26T01:50:02;9.13;;;8.10;;
5684;SDS011;2865;53.114;9.130;2023-06-26T01:52:12;8.07;;;7.37;;
5684;SDS011;2865;53.114;9.130;2023-06-26T01:54:37;10.33;;;8.17;;
5684;SDS011;2865;53.114;9.130;2023-06-26T01:57:00;9.37;;;8.47;;
5684;SDS011;2865;53.114;9.130;2023-06-26T01:59:25;8.87;;;8.07;;
5684;SDS011;2865;53.114;9.130;2023-06-26T02:01:52;8.60;;;7.80;;
5684;SDS011;2865;53.114;9.130;2023-06-26T02:04:16;9.67;;;8.77;;
5684;SDS011;2865;53.114;9.130;2023-06-26T02:06:42;9.30;;;7.40;;
5684;SDS011;2865;53.114;9.130;2023-06-26T02:09:07;9.00;;;8.10;;
5684;SDS011;2865;53.114;9.130;2023-06-26T02:11:32;8.10;;;7.30;;
5684;SDS011;2865;53.114;9.130;2023-06-26T02:13:58;9.53;;;8.73;;
5684;SDS011;2865;53.114;9.130;2023-06-26T02:16:23;8.50;;;7.70;;
5684;SDS011;2865;53.114;9.130;2023-06-26T02:18:49;10.00;;;9.00;;
5684;SDS011;2865;53.114;9.130;2023-06-26T02:21:14;9.17;;;8.10;;
5684;SDS011;2865;53.114;9.130;2023-06-26T02:23:40;10.43;;;8.27;;
5684;SDS011;2865;53.114;9.130;2023-06-26T02:26:05;10.20;;;9.17;;
5684;SDS011;2865;53.114;9.130;2023-06-26T02:28:31;8.70;;;7.97;;
5684;SDS011;2865;53.114;9.130;2023-06-26T02:30:56;8.50;;;7.70;;
5684;SDS011;2865;53.114;9.130;2023-06-26T02:33:22;8.77;;;7.87;;
5684;SDS011;2865;53.114;9.130;2023-06-26T02:35:47;10.50;;;9.03;;
5684;SDS011;2865;53.114;9.130;2023-06-26T02:38:13;9.70;;;8.90;;
5684;SDS011;2865;53.114;9.130;2023-06-26T02:40:39;11.33;;;8.00;;
5684;SDS011;2865;53.114;9.130;2023-06-26T02:43:04;11.33;;;8.63;;
5684;SDS011;2865;53.114;9.130;2023-06-26T02:45:30;9.47;;;8.60;;
5684;SDS011;2865;53.114;9.130;2023-06-26T02:47:55;8.83;;;8.10;;
5684;SDS011;2865;53.114;9.130;2023-06-26T02:50:21;11.67;;;8.13;;
5684;SDS011;2865;53.114;9.130;2023-06-26T02:52:46;10.13;;;9.17;;
5684;SDS011;2865;53.114;9.130;2023-06-26T02:55:12;10.23;;;9.23;;
5684;SDS011;2865;53.114;9.130;2023-06-26T02:57:37;9.00;;;7.93;;
5684;SDS011;2865;53.114;9.130;2023-06-26T03:00:03;8.63;;;7.83;;
5684;SDS011;2865;53.114;9.130;2023-06-26T03:02:29;9.30;;;8.50;;
5684;SDS011;2865;53.114;9.130;2023-06-26T03:04:54;9.33;;;8.43;;
5684;SDS011;2865;53.114;9.130;2023-06-26T03:07:20;10.60;;;9.40;;
5684;SDS011;2865;53.114;9.130;2023-06-26T03:09:45;8.97;;;8.17;;
5684;SDS011;2865;53.114;9.130;2023-06-26T03:12:11;9.00;;;8.20;;
5684;SDS011;2865;53.114;9.130;2023-06-26T03:14:36;9.90;;;9.00;;
5684;SDS011;2865;53.114;9.130;2023-06-26T03:17:02;10.33;;;9.27;;
5684;SDS011;2865;53.114;9.130;2023-06-26T03:19:27;8.73;;;7.90;;
5684;SDS011;2865;53.114;9.130;2023-06-26T03:21:52;9.57;;;8.53;;
5684;SDS011;2865;53.114;9.130;2023-06-26T03:24:18;9.20;;;8.30;;
5684;SDS011;2865;53.114;9.130;2023-06-26T03:26:44;9.73;;;8.73;;
5684;SDS011;2865;53.114;9.130;2023-06-26T03:29:09;9.27;;;8.37;;
5684;SDS011;2865;53.114;9.130;2023-06-26T03:31:34;8.90;;;8.00;;
5684;SDS011;2865;53.114;9.130;2023-06-26T03:34:00;9.70;;;8.70;;
5684;SDS011;2865;53.114;9.130;2023-06-26T03:36:25;11.43;;;8.80;;
5684;SDS011;2865;53.114;9.130;2023-06-26T03:38:50;9.60;;;7.93;;
5684;SDS011;2865;53.114;9.130;2023-06-26T03:41:16;8.73;;;7.93;;
5684;SDS011;2865;53.114;9.130;2023-06-26T03:43:41;12.60;;;9.00;;
5684;SDS011;2865;53.114;9.130;2023-06-26T03:46:06;9.47;;;8.43;;
5684;SDS011;2865;53.114;9.130;2023-06-26T03:48:32;8.20;;;7.40;;
5684;SDS011;2865;53.114;9.130;2023-06-26T03:50:57;9.27;;;8.10;;
5684;SDS011;2865;53.114;9.130;2023-06-26T03:53:23;8.67;;;7.77;;
5684;SDS011;2865;53.114;9.130;2023-06-26T03:55:48;9.03;;;8.10;;
5684;SDS011;2865;53.114;9.130;2023-06-26T03:58:14;8.80;;;8.00;;
5684;SDS011;2865;53.114;9.130;2023-06-26T04:00:39;8.67;;;7.70;;
5684;SDS011;2865;53.114;9.130;2023-06-26T04:03:04;8.57;;;7.77;;
5684;SDS011;2865;53.114;9.130;2023-06-26T04:05:30;9.00;;;8.10;;
5684;SDS011;2865;53.114;9.130;2023-06-26T04:07:55;8.60;;;7.70;;
5684;SDS011;2865;53.114;9.130;2023-06-26T04:10:21;8.07;;;7.37;;
5684;SDS011;2865;53.114;9.130;2023-06-26T04:12:47;8.90;;;7.50;;
5684;SDS011;2865;53.114;9.130;2023-06-26T04:15:12;8.57;;;7.77;;
5684;SDS011;2865;53.114;9.130;2023-06-26T04:17:37;8.60;;;7.80;;
5684;SDS011;2865;53.114;9.130;2023-06-26T04:20:03;8.37;;;7.47;;
5684;SDS011;2865;53.114;9.130;2023-06-26T04:22:29;8.30;;;7.60;;
5684;SDS011;2865;53.114;9.130;2023-06-26T04:24:55;9.50;;;7.60;;
5684;SDS011;2865;53.114;9.130;2023-06-26T04:27:20;7.47;;;6.77;;
5684;SDS011;2865;53.114;9.130;2023-06-26T04:29:45;7.37;;;6.77;;
5684;SDS011;2865;53.114;9.130;2023-06-26T04:32:11;9.30;;;8.40;;
5684;SDS011;2865;53.114;9.130;2023-06-26T04:34:36;7.83;;;7.13;;
5684;SDS011;2865;53.114;9.130;2023-06-26T04:37:02;7.67;;;6.90;;
5684;SDS011;2865;53.114;9.130;2023-06-26T04:39:27;8.47;;;6.83;;
5684;SDS011;2865;53.114;9.130;2023-06-26T04:41:53;7.60;;;6.90;;
5684;SDS011;2865;53.114;9.130;2023-06-26T04:44:18;7.57;;;6.30;;
5684;SDS011;2865;53.114;9.130;2023-06-26T04:46:44;7.90;;;7.10;;
5684;SDS011;2865;53.114;9.130;2023-06-26T04:49:09;8.10;;;6.77;;
5684;SDS011;2865;53.114;9.130;2023-06-26T04:51:35;7.53;;;6.73;;
5684;SDS011;2865;53.114;9.130;2023-06-26T04:54:00;8.23;;;6.97;;
5684;SDS011;2865;53.114;9.130;2023-06-26T04:56:25;11.33;;;7.00;;
5684;SDS011;2865;53.114;9.130;2023-06-26T04:58:51;8.30;;;7.50;;
5684;SDS011;2865;53.114;9.130;2023-06-26T05:01:16;7.63;;;6.93;;
5684;SDS011;2865;53.114;9.130;2023-06-26T05:03:42;8.10;;;7.40;;
5684;SDS011;2865;53.114;9.130;2023-06-26T05:06:07;7.63;;;6.93;;
5684;SDS011;2865;53.114;9.130;2023-06-26T05:08:32;6.87;;;6.27;;
5684;SDS011;2865;53.114;9.130;2023-06-26T05:10:58;7.23;;;6.53;;
5684;SDS011;2865;53.114;9.130;2023-06-26T05:13:23;7.67;;;6.97;;
5684;SDS011;2865;53.114;9.130;2023-06-26T05:15:49;8.37;;;7.57;;
5684;SDS011;2865;53.114;9.130;2023-06-26T05:18:14;9.23;;;7.07;;
5684;SDS011;2865;53.114;9.130;2023-06-26T05:20:39;6.93;;;6.23;;
5684;SDS011;2865;53.114;9.130;2023-06-26T05:23:05;7.30;;;6.50;;
5684;SDS011;2865;53.114;9.130;2023-06-26T05:25:31;6.60;;;5.80;;
5684;SDS011;2865;53.114;9.130;2023-06-26T05:27:57;6.63;;;6.00;;
5684;SDS011;2865;53.114;9.130;2023-06-26T05:30:23;7.27;;;6.57;;
5684;SDS011;2865;53.114;9.130;2023-06-26T05:32:49;6.60;;;5.97;;
5684;SDS011;2865;53.114;9.130;2023-06-26T05:35:15;6.20;;;5.60;;
5684;SDS011;2865;53.114;9.130;2023-06-26T05:37:41;7.20;;;6.40;;
5684;SDS011;2865;53.114;9.130;2023-06-26T05:40:06;7.10;;;6.40;;
5684;SDS011;2865;53.114;9.130;2023-06-26T05:42:33;9.93;;;5.90;;
5684;SDS011;2865;53.114;9.130;2023-06-26T05:44:58;6.10;;;5.50;;
5684;SDS011;2865;53.114;9.130;2023-06-26T05:47:24;6.30;;;5.70;;
5684;SDS011;2865;53.114;9.130;2023-06-26T05:49:49;8.20;;;5.63;;
5684;SDS011;2865;53.114;9.130;2023-06-26T05:52:15;7.13;;;5.07;;
5684;SDS011;2865;53.114;9.130;2023-06-26T05:54:41;6.23;;;5.30;;
5684;SDS011;2865;53.114;9.130;2023-06-26T05:57:07;7.40;;;5.97;;
5684;SDS011;2865;53.114;9.130;2023-06-26T05:59:33;6.50;;;5.90;;
5684;SDS011;2865;53.114;9.130;2023-06-26T06:01:58;7.87;;;5.83;;
5684;SDS011;2865;53.114;9.130;2023-06-26T06:04:24;7.70;;;5.63;;
5684;SDS011;2865;53.114;9.130;2023-06-26T06:06:49;6.27;;;5.67;;
5684;SDS011;2865;53.114;9.130;2023-06-26T06:09:14;6.40;;;5.80;;
5684;SDS011;2865;53.114;9.130;2023-06-26T06:11:40;6.97;;;5.20;;
5684;SDS011;2865;53.114;9.130;2023-06-26T06:14:05;6.10;;;5.60;;
5684;SDS011;2865;53.114;9.130;2023-06-26T06:16:31;8.80;;;5.63;;
5684;SDS011;2865;53.114;9.130;2023-06-26T06:18:56;6.13;;;5.63;;
5684;SDS011;2865;53.114;9.130;2023-06-26T06:21:21;12.90;;;5.93;;
5684;SDS011;2865;53.114;9.130;2023-06-26T06:23:47;6.60;;;5.10;;
5684;SDS011;2865;53.114;9.130;2023-06-26T06:26:12;5.80;;;5.30;;
5684;SDS011;2865;53.114;9.130;2023-06-26T06:28:38;5.77;;;5.27;;
5684;SDS011;2865;53.114;9.130;2023-06-26T06:31:03;6.23;;;5.63;;
5684;SDS011;2865;53.114;9.130;2023-06-26T06:33:29;6.80;;;5.70;;
5684;SDS011;2865;53.114;9.130;2023-06-26T06:35:54;37.03;;;6.90;;
5684;SDS011;2865;53.114;9.130;2023-06-26T06:38:19;4.90;;;4.50;;
5684;SDS011;2865;53.114;9.130;2023-06-26T06:40:45;6.60;;;5.47;;
5684;SDS011;2865;53.114;9.130;2023-06-26T06:43:11;6.23;;;5.60;;
5684;SDS011;2865;53.114;9.130;2023-06-26T06:45:36;6.33;;;5.70;;
5684;SDS011;2865;53.114;9.130;2023-06-26T06:48:02;6.23;;;5.63;;
5684;SDS011;2865;53.114;9.130;2023-06-26T06:50:27;8.23;;;5.20;;
5684;SDS011;2865;53.114;9.130;2023-06-26T06:52:52;6.67;;;5.13;;
5684;SDS011;2865;53.114;9.130;2023-06-26T06:55:18;8.70;;;5.57;;
5684;SDS011;2865;53.114;9.130;2023-06-26T06:57:43;7.20;;;6.00;;
5684;SDS011;2865;53.114;9.130;2023-06-26T07:00:10;8.60;;;6.00;;
5684;SDS011;2865;53.114;9.130;2023-06-26T07:02:37;7.00;;;5.97;;
5684;SDS011;2865;53.114;9.130;2023-06-26T07:05:03;13.03;;;5.83;;
5684;SDS011;2865;53.114;9.130;2023-06-26T07:07:30;6.27;;;5.10;;
5684;SDS011;2865;53.114;9.130;2023-06-26T07:09:54;7.77;;;6.40;;
5684;SDS011;2865;53.114;9.130;2023-06-26T07:12:20;6.93;;;5.30;;
5684;SDS011;2865;53.114;9.130;2023-06-26T07:14:45;6.70;;;5.30;;
5684;SDS011;2865;53.114;9.130;2023-06-26T07:17:10;7.30;;;6.30;;
5684;SDS011;2865;53.114;9.130;2023-06-26T07:19:36;6.57;;;5.87;;
5684;SDS011;2865;53.114;9.130;2023-06-26T07:22:01;5.97;;;5.37;;
5684;SDS011;2865;53.114;9.130;2023-06-26T07:24:27;8.33;;;6.57;;
5684;SDS011;2865;53.114;9.130;2023-06-26T07:26:52;6.10;;;5.47;;
5684;SDS011;2865;53.114;9.130;2023-06-26T07:29:18;7.53;;;5.90;;
5684;SDS011;2865;53.114;9.130;2023-06-26T07:31:43;6.80;;;6.10;;
5684;SDS011;2865;53.114;9.130;2023-06-26T07:34:08;6.77;;;6.07;;
5684;SDS011;2865;53.114;9.130;2023-06-26T07:36:34;9.03;;;6.60;;
5684;SDS011;2865;53.114;9.130;2023-06-26T07:38:59;6.70;;;6.00;;
5684;SDS011;2865;53.114;9.130;2023-06-26T07:41:24;6.60;;;5.60;;
5684;SDS011;2865;53.114;9.130;2023-06-26T07:43:50;6.67;;;6.07;;
5684;SDS011;2865;53.114;9.130;2023-06-26T07:46:15;7.87;;;6.53;;
5684;SDS011;2865;53.114;9.130;2023-06-26T07:48:41;8.07;;;6.30;;
5684;SDS011;2865;53.114;9.130;2023-06-26T07:51:06;8.33;;;6.90;;
5684;SDS011;2865;53.114;9.130;2023-06-26T07:53:31;7.47;;;6.77;;
5684;SDS011;2865;53.114;9.130;2023-06-26T07:55:57;7.80;;;6.53;;
5684;SDS011;2865;53.114;9.130;2023-06-26T07:58:22;7.97;;;7.17;;
5684;SDS011;2865;53.114;9.130;2023-06-26T08:00:47;9.30;;;7.13;;
5684;SDS011;2865;53.114;9.130;2023-06-26T08:03:13;9.03;;;6.23;;
5684;SDS011;2865;53.114;9.130;2023-06-26T08:05:38;8.90;;;7.23;;
5684;SDS011;2865;53.114;9.130;2023-06-26T08:08:04;6.90;;;6.30;;
5684;SDS011;2865;53.114;9.130;2023-06-26T08:10:29;6.90;;;6.20;;
5684;SDS011;2865;53.114;9.130;2023-06-26T08:12:54;7.37;;;6.57;;
5684;SDS011;2865;53.114;9.130;2023-06-26T08:15:20;7.40;;;6.50;;
5684;SDS011;2865;53.114;9.130;2023-06-26T08:17:45;6.93;;;5.60;;
5684;SDS011;2865;53.114;9.130;2023-06-26T08:20:11;9.57;;;6.33;;
5684;SDS011;2865;53.114;9.130;2023-06-26T08:22:37;9.37;;;5.57;;
5684;SDS011;2865;53.114;9.130;2023-06-26T08:25:03;7.53;;;6.03;;
5684;SDS011;2865;53.114;9.130;2023-06-26T08:27:29;7.93;;;6.10;;
5684;SDS011;2865;53.114;9.130;2023-06-26T08:29:54;12.33;;;7.00;;
5684;SDS011;2865;53.114;9.130;2023-06-26T08:32:20;8.80;;;7.00;;
5684;SDS011;2865;53.114;9.130;2023-06-26T08:34:45;8.83;;;7.10;;
5684;SDS011;2865;53.114;9.130;2023-06-26T08:37:10;14.90;;;8.00;;
5684;SDS011;2865;53.114;9.130;2023-06-26T08:39:36;13.50;;;8.93;;
5684;SDS011;2865;53.114;9.130;2023-06-26T08:42:01;11.20;;;8.77;;
5684;SDS011;2865;53.114;9.130;2023-06-26T08:44:27;11.17;;;8.67;;
5684;SDS011;2865;53.114;9.130;2023-06-26T08:46:52;13.60;;;9.57;;
5684;SDS011;2865;53.114;9.130;2023-06-26T08:49:23;11.83;;;7.27;;
5684;SDS011;2865;53.114;9.130;2023-06-26T08:52:04;10.27;;;8.47;;
5684;SDS011;2865;53.114;9.130;2023-06-26T08:54:28;9.57;;;7.13;;
5684;SDS011;2865;53.114;9.130;2023-06-26T08:56:53;9.40;;;7.27;;
5684;SDS011;2865;53.114;9.130;2023-06-26T08:59:18;15.37;;;7.20;;
5684;SDS011;2865;53.114;9.130;2023-06-26T09:01:43;9.90;;;5.93;;
5684;SDS011;2865;53.114;9.130;2023-06-26T09:04:09;9.23;;;5.93;;
5684;SDS011;2865;53.114;9.130;2023-06-26T09:06:34;8.13;;;6.07;;
5684;SDS011;2865;53.114;9.130;2023-06-26T09:09:00;9.00;;;5.90;;
5684;SDS011;2865;53.114;9.130;2023-06-26T09:11:25;9.23;;;6.70;;
5684;SDS011;2865;53.114;9.130;2023-06-26T09:13:50;8.20;;;6.80;;
5684;SDS011;2865;53.114;9.130;2023-06-26T09:16:16;12.67;;;6.33;;
5684;SDS011;2865;53.114;9.130;2023-06-26T09:18:41;8.43;;;6.43;;
5684;SDS011;2865;53.114;9.130;2023-06-26T09:21:08;6.50;;;5.20;;
5684;SDS011;2865;53.114;9.130;2023-06-26T09:23:33;8.13;;;5.60;;
5684;SDS011;2865;53.114;9.130;2023-06-26T09:25:58;7.33;;;5.20;;
5684;SDS011;2865;53.114;9.130;2023-06-26T09:28:24;11.67;;;7.00;;
5684;SDS011;2865;53.114;9.130;2023-06-26T09:30:49;6.20;;;5.30;;
5684;SDS011;2865;53.114;9.130;2023-06-26T09:33:15;8.97;;;6.10;;
5684;SDS011;2865;53.114;9.130;2023-06-26T09:35:40;7.93;;;5.33;;
5684;SDS011;2865;53.114;9.130;2023-06-26T09:38:05;7.10;;;5.70;;
5684;SDS011;2865;53.114;9.130;2023-06-26T09:40:31;8.77;;;7.30;;
5684;SDS011;2865;53.114;9.130;2023-06-26T09:43:02;8.43;;;6.57;;
5684;SDS011;2865;53.114;9.130;2023-06-26T09:45:28;10.50;;;7.47;;
5684;SDS011;2865;53.114;9.130;2023-06-26T09:47:53;9.67;;;7.90;;
5684;SDS011;2865;53.114;9.130;2023-06-26T09:50:21;9.17;;;7.83;;
5684;SDS011;2865;53.114;9.130;2023-06-26T09:52:46;11.07;;;7.97;;
5684;SDS011;2865;53.114;9.130;2023-06-26T09:55:12;9.80;;;7.97;;
5684;SDS011;2865;53.114;9.130;2023-06-26T09:57:38;11.70;;;8.27;;
5684;SDS011;2865;53.114;9.130;2023-06-26T10:00:04;12.20;;;7.77;;
5684;SDS011;2865;53.114;9.130;2023-06-26T10:02:31;18.50;;;5.93;;
5684;SDS011;2865;53.114;9.130;2023-06-26T10:04:56;10.50;;;6.57;;
5684;SDS011;2865;53.114;9.130;2023-06-26T10:07:23;9.53;;;5.73;;
5684;SDS011;2865;53.114;9.130;2023-06-26T10:09:48;7.40;;;4.40;;
5684;SDS011;2865;53.114;9.130;2023-06-26T10:12:17;5.30;;;4.43;;
5684;SDS011;2865;53.114;9.130;2023-06-26T10:14:41;6.93;;;4.93;;
5684;SDS011;2865;53.114;9.130;2023-06-26T10:17:08;5.47;;;4.47;;
5684;SDS011;2865;53.114;9.130;2023-06-26T10:19:33;9.13;;;3.60;;
5684;SDS011;2865;53.114;9.130;2023-06-26T10:21:58;5.13;;;3.90;;
5684;SDS011;2865;53.114;9.130;2023-06-26T10:24:24;6.47;;;3.63;;
5684;SDS011;2865;53.114;9.130;2023-06-26T10:26:49;8.87;;;3.73;;
5684;SDS011;2865;53.114;9.130;2023-06-26T10:29:14;9.90;;;4.17;;
5684;SDS011;2865;53.114;9.130;2023-06-26T10:31:40;14.73;;;4.50;;
5684;SDS011;2865;53.114;9.130;2023-06-26T10:34:06;8.17;;;4.00;;
5684;SDS011;2865;53.114;9.130;2023-06-26T10:36:31;6.67;;;4.07;;
5684;SDS011;2865;53.114;9.130;2023-06-26T10:38:58;8.67;;;2.80;;
5684;SDS011;2865;53.114;9.130;2023-06-26T10:41:23;7.00;;;3.00;;
5684;SDS011;2865;53.114;9.130;2023-06-26T10:43:49;4.53;;;3.07;;
5684;SDS011;2865;53.114;9.130;2023-06-26T10:46:14;6.17;;;2.73;;
5684;SDS011;2865;53.114;9.130;2023-06-26T10:51:13;5.70;;;2.00;;
5684;SDS011;2865;53.114;9.130;2023-06-26T10:53:38;2.87;;;1.90;;
5684;SDS011;2865;53.114;9.130;2023-06-26T10:56:04;8.30;;;2.10;;
5684;SDS011;2865;53.114;9.130;2023-06-26T10:58:31;9.60;;;2.43;;
5684;SDS011;2865;53.114;9.130;2023-06-26T11:03:40;7.10;;;1.90;;
5684;SDS011;2865;53.114;9.130;2023-06-26T11:06:09;7.97;;;1.97;;
5684;SDS011;2865;53.114;9.130;2023-06-26T11:11:08;7.73;;;2.03;;
5684;SDS011;2865;53.114;9.130;2023-06-26T11:13:34;2.37;;;1.60;;
5684;SDS011;2865;53.114;9.130;2023-06-26T11:16:00;9.00;;;2.23;;
5684;SDS011;2865;53.114;9.130;2023-06-26T11:18:25;5.20;;;1.93;;
5684;SDS011;2865;53.114;9.130;2023-06-26T11:20:50;10.50;;;2.10;;
5684;SDS011;2865;53.114;9.130;2023-06-26T11:23:16;5.07;;;2.00;;
5684;SDS011;2865;53.114;9.130;2023-06-26T11:25:41;4.03;;;2.00;;
5684;SDS011;2865;53.114;9.130;2023-06-26T11:28:09;2.23;;;1.73;;
5684;SDS011;2865;53.114;9.130;2023-06-26T11:30:32;3.97;;;1.67;;
5684;SDS011;2865;53.114;9.130;2023-06-26T11:33:02;3.73;;;1.57;;
5684;SDS011;2865;53.114;9.130;2023-06-26T11:35:32;4.87;;;2.10;;
5684;SDS011;2865;53.114;9.130;2023-06-26T11:37:59;6.40;;;1.70;;
5684;SDS011;2865;53.114;9.130;2023-06-26T11:40:24;3.73;;;1.33;;
5684;SDS011;2865;53.114;9.130;2023-06-26T11:42:50;4.80;;;2.30;;
5684;SDS011;2865;53.114;9.130;2023-06-26T11:45:15;3.60;;;1.50;;
5684;SDS011;2865;53.114;9.130;2023-06-26T11:47:41;2.70;;;1.60;;
5684;SDS011;2865;53.114;9.130;2023-06-26T11:50:14;2.80;;;1.70;;
5684;SDS011;2865;53.114;9.130;2023-06-26T11:52:33;5.07;;;1.53;;
5684;SDS011;2865;53.114;9.130;2023-06-26T11:54:58;5.37;;;1.53;;
5684;SDS011;2865;53.114;9.130;2023-06-26T11:57:24;5.67;;;1.50;;
5684;SDS011;2865;53.114;9.130;2023-06-26T11:59:50;2.37;;;1.33;;
5684;SDS011;2865;53.114;9.130;2023-06-26T12:02:15;5.33;;;1.70;;
5684;SDS011;2865;53.114;9.130;2023-06-26T12:04:41;2.10;;;1.80;;
5684;SDS011;2865;53.114;9.130;2023-06-26T12:07:06;5.27;;;1.80;;
5684;SDS011;2865;53.114;9.130;2023-06-26T12:09:31;9.00;;;2.33;;
5684;SDS011;2865;53.114;9.130;2023-06-26T12:11:57;4.90;;;1.60;;
5684;SDS011;2865;53.114;9.130;2023-06-26T12:14:23;6.40;;;1.90;;
5684;SDS011;2865;53.114;9.130;2023-06-26T12:16:48;7.57;;;2.67;;
5684;SDS011;2865;53.114;9.130;2023-06-26T12:19:14;3.87;;;1.53;;
5684;SDS011;2865;53.114;9.130;2023-06-26T12:21:47;4.00;;;1.60;;
5684;SDS011;2865;53.114;9.130;2023-06-26T12:24:14;4.43;;;1.77;;
5684;SDS011;2865;53.114;9.130;2023-06-26T12:26:41;2.73;;;1.57;;
5684;SDS011;2865;53.114;9.130;2023-06-26T12:29:08;4.20;;;1.50;;
5684;SDS011;2865;53.114;9.130;2023-06-26T12:31:33;2.87;;;1.40;;
5684;SDS011;2865;53.114;9.130;2023-06-26T12:33:58;4.10;;;2.00;;
5684;SDS011;2865;53.114;9.130;2023-06-26T12:36:23;3.67;;;1.47;;
5684;SDS011;2865;53.114;9.130;2023-06-26T12:38:50;3.00;;;1.60;;
5684;SDS011;2865;53.114;9.130;2023-06-26T12:41:15;6.63;;;1.63;;
5684;SDS011;2865;53.114;9.130;2023-06-26T12:43:41;5.57;;;1.47;;
5684;SDS011;2865;53.114;9.130;2023-06-26T12:46:06;2.03;;;1.27;;
5684;SDS011;2865;53.114;9.130;2023-06-26T12:48:39;3.67;;;1.50;;
5684;SDS011;2865;53.114;9.130;2023-06-26T12:51:08;3.77;;;1.40;;
5684;SDS011;2865;53.114;9.130;2023-06-26T12:53:33;3.90;;;1.50;;
5684;SDS011;2865;53.114;9.130;2023-06-26T12:55:58;4.40;;;1.87;;
5684;SDS011;2865;53.114;9.130;2023-06-26T12:58:24;3.97;;;1.80;;
5684;SDS011;2865;53.114;9.130;2023-06-26T13:00:49;2.70;;;2.50;;
5684;SDS011;2865;53.114;9.130;2023-06-26T13:03:15;6.83;;;2.00;;
5684;SDS011;2865;53.114;9.130;2023-06-26T13:05:41;5.97;;;1.90;;
5684;SDS011;2865;53.114;9.130;2023-06-26T13:08:06;1.80;;;1.33;;
5684;SDS011;2865;53.114;9.130;2023-06-26T13:10:33;1.97;;;1.60;;
5684;SDS011;2865;53.114;9.130;2023-06-26T13:12:59;2.23;;;1.30;;
5684;SDS011;2865;53.114;9.130;2023-06-26T13:15:24;2.87;;;1.70;;
5684;SDS011;2865;53.114;9.130;2023-06-26T13:17:50;2.40;;;1.73;;
5684;SDS011;2865;53.114;9.130;2023-06-26T13:20:19;3.23;;;1.57;;
5684;SDS011;2865;53.114;9.130;2023-06-26T13:22:45;2.70;;;1.50;;
5684;SDS011;2865;53.114;9.130;2023-06-26T13:25:11;2.70;;;1.70;;
5684;SDS011;2865;53.114;9.130;2023-06-26T13:27:37;2.97;;;1.70;;
5684;SDS011;2865;53.114;9.130;2023-06-26T13:30:02;1.90;;;1.17;;
5684;SDS011;2865;53.114;9.130;2023-06-26T13:32:28;4.30;;;1.70;;
5684;SDS011;2865;53.114;9.130;2023-06-26T13:34:54;1.67;;;1.33;;
5684;SDS011;2865;53.114;9.130;2023-06-26T13:37:19;2.13;;;1.90;;
5684;SDS011;2865;53.114;9.130;2023-06-26T13:39:45;3.73;;;1.60;;
5684;SDS011;2865;53.114;9.130;2023-06-26T13:42:10;2.13;;;1.33;;
5684;SDS011;2865;53.114;9.130;2023-06-26T13:44:36;2.63;;;1.27;;
5684;SDS011;2865;53.114;9.130;2023-06-26T13:47:01;4.53;;;1.63;;
5684;SDS011;2865;53.114;9.130;2023-06-26T13:49:26;1.47;;;1.20;;
5684;SDS011;2865;53.114;9.130;2023-06-26T13:51:52;3.33;;;1.97;;
5684;SDS011;2865;53.114;9.130;2023-06-26T13:54:17;4.43;;;1.63;;
5684;SDS011;2865;53.114;9.130;2023-06-26T13:56:42;4.50;;;1.67;;
5684;SDS011;2865;53.114;9.130;2023-06-26T13:59:08;3.97;;;1.77;;
5684;SDS011;2865;53.114;9.130;2023-06-26T14:01:33;7.23;;;2.10;;
5684;SDS011;2865;53.114;9.130;2023-06-26T14:03:58;2.63;;;1.80;;
5684;SDS011;2865;53.114;9.130;2023-06-26T14:06:24;5.80;;;1.67;;
5684;SDS011;2865;53.114;9.130;2023-06-26T14:08:50;2.63;;;2.00;;
5684;SDS011;2865;53.114;9.130;2023-06-26T14:11:15;5.73;;;1.80;;
5684;SDS011;2865;53.114;9.130;2023-06-26T14:13:42;3.13;;;2.23;;
5684;SDS011;2865;53.114;9.130;2023-06-26T14:16:07;5.27;;;1.90;;
5684;SDS011;2865;53.114;9.130;2023-06-26T14:18:33;3.67;;;1.70;;
5684;SDS011;2865;53.114;9.130;2023-06-26T14:20:58;2.77;;;1.50;;
5684;SDS011;2865;53.114;9.130;2023-06-26T14:23:23;3.43;;;2.20;;
5684;SDS011;2865;53.114;9.130;2023-06-26T14:25:49;4.47;;;1.77;;
5684;SDS011;2865;53.114;9.130;2023-06-26T14:28:14;5.03;;;1.93;;
5684;SDS011;2865;53.114;9.130;2023-06-26T14:30:40;2.90;;;1.80;;
5684;SDS011;2865;53.114;9.130;2023-06-26T14:33:05;2.40;;;1.80;;
5684;SDS011;2865;53.114;9.130;2023-06-26T14:35:31;1.70;;;1.60;;
5684;SDS011;2865;53.114;9.130;2023-06-26T14:37:56;2.17;;;1.97;;
5684;SDS011;2865;53.114;9.130;2023-06-26T14:40:22;3.33;;;1.67;;
5684;SDS011;2865;53.114;9.130;2023-06-26T14:42:47;2.33;;;1.90;;
5684;SDS011;2865;53.114;9.130;2023-06-26T14:45:13;3.00;;;1.50;;
5684;SDS011;2865;53.114;9.130;2023-06-26T14:47:39;5.63;;;2.17;;
5684;SDS011;2865;53.114;9.130;2023-06-26T14:50:05;3.13;;;1.63;;
5684;SDS011;2865;53.114;9.130;2023-06-26T14:52:30;1.87;;;1.67;;
5684;SDS011;2865;53.114;9.130;2023-06-26T14:54:56;1.70;;;1.60;;
5684;SDS011;2865;53.114;9.130;2023-06-26T14:57:22;1.80;;;1.70;;
5684;SDS011;2865;53.114;9.130;2023-06-26T14:59:48;2.83;;;1.43;;
5684;SDS011;2865;53.114;9.130;2023-06-26T15:02:13;3.30;;;1.80;;
5684;SDS011;2865;53.114;9.130;2023-06-26T15:04:39;3.37;;;1.47;;
5684;SDS011;2865;53.114;9.130;2023-06-26T15:07:05;6.13;;;1.83;;
5684;SDS011;2865;53.114;9.130;2023-06-26T15:09:30;3.13;;;1.80;;
5684;SDS011;2865;53.114;9.130;2023-06-26T15:11:57;3.53;;;1.87;;